Time;durP1;ratioP1;P1;durP2;ratioP2;P2;SDS_P1;SDS_P2;PMS_P1;PMS_P2;Temp;Humidity;BMP_temperature;BMP_pressure;BME280_temperature;BME280_humidity;BME280_pressure;Samples;Min_cycle;Max_cycle;Signal;HPM_P1;HPM_P2
2024/02/09 00:01:01;;;;;;;9.48;2.40;;;11.60;99.90;;;;;;5101627;28;20029;-88
2024/02/09 00:03:27;;;;;;;6.57;2.20;;;12.50;99.90;;;;;;5102065;28;20042;-87
2024/02/09 00:05:53;;;;;;;6.45;2.20;;;11.70;99.90;;;;;;5089148;28;20024;-89
2024/02/09 00:08:22;;;;;;;7.55;2.03;;;11.60;99.90;;;;;;5098092;28;20013;-89
2024/02/09 00:10:57;;;;;;;6.38;2.00;;;11.70;99.90;;;;;;5101710;28;20040;-88
2024/02/09 00:13:22;;;;;;;7.90;2.42;;;11.60;99.90;;;;;;5106805;28;20022;-87
2024/02/09 00:15:53;;;;;;;7.28;2.40;;;11.40;99.90;;;;;;5103704;28;20044;-88
2024/02/09 00:18:40;;;;;;;11.02;2.70;;;11.40;99.90;;;;;;5104225;28;20364;-88
2024/02/09 00:21:10;;;;;;;10.15;2.08;;;11.40;99.90;;;;;;5103418;28;20028;-86
2024/02/09 00:23:36;;;;;;;;;;;12.40;99.90;;;;;;5098493;28;20025;-88
2024/02/09 00:26:02;;;;;;;7.80;2.50;;;12.20;99.90;;;;;;5103639;28;19922;-88
2024/02/09 00:28:29;;;;;;;5.63;1.95;;;11.20;99.90;;;;;;5102013;28;20024;-90
2024/02/09 00:30:54;;;;;;;5.32;2.08;;;11.20;99.90;;;;;;5102113;28;20024;-89
2024/02/09 00:33:20;;;;;;;7.05;2.13;;;11.10;99.90;;;;;;5100570;28;20036;-90
2024/02/09 00:35:46;;;;;;;7.30;2.15;;;11.10;99.90;;;;;;5099218;28;20083;-88
2024/02/09 00:38:15;;;;;;;8.40;2.10;;;12.30;99.90;;;;;;5098697;28;20113;-89
2024/02/09 00:40:40;;;;;;;7.45;2.10;;;11.40;99.90;;;;;;5101635;28;20040;-89
2024/02/09 00:43:06;;;;;;;10.20;2.30;;;11.10;99.90;;;;;;5102934;28;20067;-89
2024/02/09 00:45:36;;;;;;;5.95;2.17;;;12.20;99.90;;;;;;5102326;28;20084;-90
2024/02/09 00:48:06;;;;;;;7.13;1.90;;;10.90;99.90;;;;;;5106467;28;20016;-88
2024/02/09 00:50:32;;;;;;;8.30;2.42;;;10.70;99.90;;;;;;5098442;28;20072;-87
2024/02/09 00:53:01;;;;;;;7.72;2.47;;;10.90;99.90;;;;;;5099596;28;20293;-88
2024/02/09 00:55:30;;;;;;;8.02;2.20;;;11.20;99.90;;;;;;5106113;28;20091;-89
2024/02/09 00:57:56;;;;;;;6.65;2.95;;;11.70;99.90;;;;;;5102885;28;20016;-89
2024/02/09 01:00:22;;;;;;;6.85;2.60;;;11.30;99.90;;;;;;5100510;28;20027;-89
2024/02/09 01:02:51;;;;;;;7.85;2.10;;;10.80;99.90;;;;;;5102779;28;20031;-88
2024/02/09 01:05:18;;;;;;;9.57;2.42;;;10.80;99.90;;;;;;5101563;28;20088;-88
2024/02/09 01:07:50;;;;;;;8.75;2.22;;;10.70;99.90;;;;;;5100562;28;20019;-88
2024/02/09 01:10:16;;;;;;;5.00;2.00;;;10.70;99.90;;;;;;5095962;28;20039;-90
2024/02/09 02:46:14;;;;;;;5.35;1.65;;;10.50;99.90;;;;;;5099838;27;20036;-89
2024/02/09 03:05:24;;;;;;;4.40;1.60;;;10.70;99.90;;;;;;5103261;28;20027;-88
2024/02/09 03:07:54;;;;;;;5.10;1.75;;;10.40;99.90;;;;;;5105350;28;20024;-87
2024/02/09 03:10:20;;;;;;;5.20;2.00;;;11.70;99.90;;;;;;5105819;28;20040;-88
2024/02/09 03:12:46;;;;;;;5.32;2.00;;;11.40;99.90;;;;;;5104743;28;20112;-88
2024/02/09 03:15:14;;;;;;;8.15;1.98;;;11.00;99.90;;;;;;5102167;28;20024;-87
2024/02/09 03:17:41;;;;;;;5.40;1.83;;;10.50;99.90;;;;;;5101370;28;20343;-90
2024/02/09 03:20:08;;;;;;;4.57;1.80;;;10.50;99.90;;;;;;5100175;28;20769;-88
2024/02/09 03:22:35;;;;;;;5.05;1.80;;;10.40;99.90;;;;;;5101614;28;20016;-89
2024/02/09 03:25:04;;;;;;;6.43;2.20;;;10.40;99.90;;;;;;5104163;28;20036;-89
2024/02/09 03:27:32;;;;;;;6.55;1.60;;;10.40;99.90;;;;;;5101599;28;20040;-90
2024/02/09 03:30:01;;;;;;;10.32;2.40;;;10.40;99.90;;;;;;5107535;28;20050;-89
2024/02/09 03:32:28;;;;;;;8.80;2.28;;;10.40;99.90;;;;;;5103130;28;20055;-88
2024/02/09 03:34:55;;;;;;;7.35;1.77;;;10.30;99.90;;;;;;5107164;28;20024;-90
2024/02/09 03:37:27;;;;;;;7.18;2.33;;;11.50;99.90;;;;;;5104752;27;20019;-90
2024/02/09 03:39:56;;;;;;;5.05;2.03;;;10.90;99.90;;;;;;5107895;28;20009;-88
2024/02/09 03:42:25;;;;;;;6.20;2.00;;;10.50;99.90;;;;;;5101420;28;20027;-88
2024/02/09 03:44:58;;;;;;;4.40;1.70;;;11.20;99.90;;;;;;5092245;28;20047;-89
2024/02/09 03:47:26;;;;;;;7.38;2.58;;;11.20;99.90;;;;;;5104489;28;20051;-89
2024/02/09 03:49:53;;;;;;;7.25;2.22;;;10.50;99.90;;;;;;5102742;28;20024;-90
2024/02/09 03:52:22;;;;;;;6.80;2.45;;;10.50;99.90;;;;;;5098340;28;20036;-89
2024/02/09 03:54:52;;;;;;;7.32;2.35;;;11.60;99.90;;;;;;5102435;27;20019;-89
2024/02/09 03:57:24;;;;;;;8.50;2.67;;;11.60;99.90;;;;;;5096054;28;20024;-89
2024/02/09 03:59:54;;;;;;;9.68;2.63;;;10.60;99.90;;;;;;5099091;28;20273;-88
2024/02/09 04:02:20;;;;;;;7.88;2.63;;;10.50;99.90;;;;;;5086958;28;20017;-88
2024/02/09 04:04:47;;;;;;;9.38;3.60;;;9.30;99.90;;;;;;5099546;28;20017;-88
2024/02/09 04:07:15;;;;;;;11.00;3.10;;;10.40;99.90;;;;;;5095960;28;20080;-86
2024/02/09 04:09:41;;;;;;;8.75;3.28;;;10.50;99.90;;;;;;5096605;28;20044;-88
2024/02/09 04:12:10;;;;;;;12.90;3.60;;;10.40;99.90;;;;;;5096227;28;21190;-89
2024/02/09 04:14:36;;;;;;;9.35;2.83;;;10.40;99.90;;;;;;5098336;28;20031;-90
2024/02/09 04:17:06;;;;;;;7.50;3.40;;;11.70;99.90;;;;;;5094254;28;20091;-89
2024/02/09 04:19:38;;;;;;;7.13;3.63;;;10.50;99.90;;;;;;5100737;28;20021;-88
2024/02/09 04:22:08;;;;;;;8.57;4.05;;;11.60;99.90;;;;;;5095487;28;20040;-89
2024/02/09 04:24:36;;;;;;;8.02;3.75;;;10.60;99.90;;;;;;5098898;28;20104;-89
2024/02/09 04:27:03;;;;;;;11.35;3.70;;;10.60;99.90;;;;;;5096205;28;20045;-88
2024/02/09 04:29:29;;;;;;;9.57;4.40;;;10.60;99.90;;;;;;5095917;28;20395;-89
2024/02/09 04:31:55;;;;;;;11.80;4.55;;;11.40;99.90;;;;;;5100349;28;20027;-87
2024/02/09 04:34:31;;;;;;;10.73;4.70;;;9.70;99.90;;;;;;5098104;28;20047;-89
2024/02/09 04:36:57;;;;;;;8.85;4.00;;;10.50;99.90;;;;;;5100011;28;20056;-89
2024/02/09 04:39:23;;;;;;;9.27;5.00;;;11.30;99.90;;;;;;5103198;28;20016;-89
2024/02/09 04:41:51;;;;;;;10.75;5.07;;;10.70;99.90;;;;;;5100921;28;20051;-88
2024/02/09 04:44:25;;;;;;;12.13;5.53;;;9.30;99.90;;;;;;5102914;28;20012;-87
2024/02/09 04:46:50;;;;;;;10.57;5.75;;;12.00;99.90;;;;;;5097905;28;20028;-88
2024/02/09 04:49:21;;;;;;;12.45;5.57;;;10.70;99.90;;;;;;5097163;28;20043;-88
2024/02/09 04:51:50;;;;;;;14.65;6.05;;;10.70;99.90;;;;;;5095161;28;20043;-87
2024/02/09 04:54:18;;;;;;;14.05;5.72;;;12.10;99.90;;;;;;5098213;27;20047;-86
2024/02/09 04:56:44;;;;;;;11.80;6.28;;;10.80;99.90;;;;;;5100786;28;20023;-87
2024/02/09 04:59:12;;;;;;;12.38;5.63;;;10.80;99.90;;;;;;5096527;28;20035;-90
2024/02/09 05:01:41;;;;;;;14.45;6.25;;;10.80;99.90;;;;;;5098693;28;20023;-89
2024/02/09 05:04:12;;;;;;;10.45;5.70;;;11.50;99.90;;;;;;5099908;28;20016;-88
2024/02/09 05:06:38;;;;;;;;;;;10.80;99.90;;;;;;5101942;28;20034;-89
2024/02/09 05:09:09;;;;;;;11.02;6.00;;;11.90;99.90;;;;;;5100464;28;19900;-88
2024/02/09 05:11:36;;;;;;;13.75;6.40;;;10.90;99.90;;;;;;5101767;28;20034;-90
2024/02/09 05:14:06;;;;;;;13.80;6.50;;;10.80;99.90;;;;;;5104307;28;20036;-89
2024/02/09 05:16:33;;;;;;;16.00;6.80;;;10.80;99.90;;;;;;5109128;28;20212;-88
2024/02/09 05:19:02;;;;;;;11.15;5.97;;;10.90;99.90;;;;;;5104975;28;20094;-88
2024/02/09 05:21:31;;;;;;;12.88;6.15;;;10.90;99.90;;;;;;5107418;28;20020;-90
2024/02/09 05:23:56;;;;;;;16.67;6.25;;;11.80;99.90;;;;;;5104563;28;20008;-87
2024/02/09 05:26:25;;;;;;;10.80;6.05;;;11.10;99.90;;;;;;5107827;27;20101;-89
2024/02/09 05:28:51;;;;;;;13.68;6.30;;;11.00;99.90;;;;;;5102293;28;20551;-89
2024/02/09 08:29:37;;;;;;;14.25;3.90;;;11.50;99.90;;;;;;693068;22;20316;-86
2024/02/09 08:32:04;;;;;;;16.05;3.58;;;11.50;99.90;;;;;;5098028;28;20063;-87
2024/02/09 08:34:36;;;;;;;14.15;3.47;;;11.50;99.90;;;;;;5095773;28;20055;-89
2024/02/09 08:37:02;;;;;;;17.58;3.78;;;11.50;99.90;;;;;;5060952;28;20048;-85
2024/02/09 08:39:30;;;;;;;14.05;3.65;;;11.70;99.90;;;;;;5089857;28;20315;-90
2024/02/09 08:41:58;;;;;;;15.25;4.45;;;11.60;99.90;;;;;;5096169;27;20032;-89
2024/02/09 08:44:25;;;;;;;11.73;3.97;;;12.90;99.90;;;;;;5073564;28;20021;-89
2024/02/09 08:47:12;;;;;;;12.10;3.58;;;11.60;99.90;;;;;;5082885;28;20036;-89
2024/02/09 08:49:37;;;;;;;12.90;4.05;;;11.70;99.90;;;;;;5075436;28;20035;-90
2024/02/09 08:52:05;;;;;;;12.73;4.45;;;12.40;99.90;;;;;;5077547;28;20020;-89
2024/02/09 08:54:32;;;;;;;12.38;3.75;;;11.70;99.90;;;;;;5064293;28;20115;-89
2024/02/09 08:57:01;;;;;;;12.38;3.92;;;11.70;99.90;;;;;;5078076;28;20024;-90
2024/02/09 08:59:30;;;;;;;11.83;3.93;;;11.80;99.90;;;;;;5080275;28;20013;-90
2024/02/09 09:02:17;;;;;;;15.98;4.18;;;11.80;99.90;;;;;;5077525;28;20016;-92
2024/02/09 09:04:52;;;;;;;11.10;3.80;;;11.80;99.90;;;;;;5095240;28;20040;-89
2024/02/09 09:07:18;;;;;;;14.30;4.63;;;12.00;99.90;;;;;;5074668;28;20040;-90
2024/02/09 09:09:44;;;;;;;11.52;3.35;;;12.00;99.90;;;;;;5085556;28;20009;-88
2024/02/09 09:12:10;;;;;;;11.80;3.15;;;12.20;99.90;;;;;;5078404;28;20044;-89
2024/02/09 09:14:42;;;;;;;14.95;3.40;;;12.10;99.90;;;;;;5092007;27;20039;-90
2024/02/09 09:17:08;;;;;;;12.35;3.60;;;12.10;99.90;;;;;;5092353;27;20062;-89
2024/02/09 09:19:34;;;;;;;11.73;4.07;;;12.50;99.90;;;;;;5077843;28;20032;-90
2024/02/09 09:21:59;;;;;;;15.70;4.40;;;12.10;99.90;;;;;;5079072;27;20028;-89
2024/02/09 09:24:25;;;;;;;10.27;3.30;;;13.20;99.90;;;;;;5074412;28;20035;-89
2024/02/09 09:26:51;;;;;;;16.30;4.00;;;13.00;99.90;;;;;;5088445;28;20027;-89
2024/02/09 10:41:48;;;;;;;14.75;3.80;;;12.20;99.90;;;;;;5072404;28;20033;-88
2024/02/09 10:44:15;;;;;;;11.23;3.50;;;12.30;99.90;;;;;;5064983;28;20024;-89
2024/02/09 10:46:47;;;;;;;11.52;3.65;;;12.30;99.90;;;;;;5077030;28;20040;-90
2024/02/09 10:49:16;;;;;;;11.63;3.17;;;12.50;99.90;;;;;;5072633;28;20060;-88
2024/02/09 10:51:45;;;;;;;13.23;4.20;;;12.30;99.90;;;;;;5066933;28;20059;-88
2024/02/09 10:54:48;;;;;;;17.10;4.55;;;12.30;99.90;;;;;;5061059;28;20025;-89
2024/02/09 10:57:14;;;;;;;16.30;4.22;;;12.20;99.90;;;;;;5063308;28;20040;-90
2024/02/09 10:59:42;;;;;;;11.02;3.15;;;12.20;99.90;;;;;;5071737;28;20060;-89
2024/02/09 11:02:09;;;;;;;11.48;3.60;;;12.80;99.90;;;;;;5073037;28;20017;-89
2024/02/09 11:04:35;;;;;;;12.63;3.15;;;12.60;99.90;;;;;;5074116;28;20105;-90
2024/02/09 11:07:05;;;;;;;10.98;4.35;;;12.30;99.90;;;;;;5072183;28;20009;-89
2024/02/09 11:09:31;;;;;;;10.80;3.17;;;13.20;99.90;;;;;;5073753;28;20080;-89
2024/02/09 11:12:04;;;;;;;11.93;3.72;;;12.30;99.90;;;;;;5069362;28;20036;-88
2024/02/09 11:14:34;;;;;;;12.02;3.55;;;13.40;99.90;;;;;;5073416;28;20009;-88
2024/02/09 11:17:08;;;;;;;12.75;3.08;;;12.30;99.90;;;;;;5070231;28;20068;-89
2024/02/09 11:19:39;;;;;;;10.30;3.30;;;13.10;99.90;;;;;;5074629;28;20025;-88
2024/02/09 11:22:06;;;;;;;11.40;3.13;;;13.10;99.90;;;;;;5075528;28;20017;-88
2024/02/09 11:24:32;;;;;;;13.50;4.03;;;12.30;99.90;;;;;;5071527;28;20016;-91
2024/02/09 11:27:01;;;;;;;10.13;3.53;;;12.30;99.90;;;;;;5070107;28;20013;-89
2024/02/09 11:29:27;;;;;;;11.32;3.58;;;12.30;99.90;;;;;;5083025;28;20024;-87
2024/02/09 11:31:56;;;;;;;11.48;3.72;;;12.50;99.90;;;;;;5073266;28;20017;-89
2024/02/09 11:34:26;;;;;;;12.90;3.22;;;12.30;99.90;;;;;;5072687;28;20065;-89
2024/02/09 11:36:53;;;;;;;10.60;3.55;;;13.20;99.90;;;;;;5070106;28;20033;-89
2024/02/09 11:39:22;;;;;;;9.85;2.88;;;12.40;99.90;;;;;;5062824;28;20041;-89
2024/02/09 11:41:49;;;;;;;12.98;3.47;;;12.40;99.90;;;;;;5078716;28;20032;-89
2024/02/09 11:44:14;;;;;;;11.50;3.40;;;12.90;99.90;;;;;;5065058;28;20071;-89
2024/02/09 11:46:57;;;;;;;10.07;3.15;;;13.10;99.90;;;;;;5062307;28;20013;-89
2024/02/09 11:49:23;;;;;;;14.45;3.42;;;12.40;99.90;;;;;;5045801;28;20214;-90
2024/02/09 11:51:50;;;;;;;15.40;3.53;;;13.10;99.90;;;;;;5062415;28;20096;-88
2024/02/09 11:54:15;;;;;;;17.88;4.00;;;12.60;99.90;;;;;;5069240;28;20016;-90
2024/02/09 11:56:45;;;;;;;14.88;3.45;;;12.70;99.90;;;;;;5059106;28;20099;-88
2024/02/09 11:59:11;;;;;;;11.93;3.75;;;12.50;99.90;;;;;;5069914;28;20011;-88
2024/02/09 12:01:42;;;;;;;14.43;3.58;;;12.40;99.90;;;;;;5063993;28;20061;-88
2024/02/09 12:04:09;;;;;;;10.07;3.53;;;12.40;99.90;;;;;;5071482;28;20013;-90
2024/02/09 12:06:36;;;;;;;12.38;3.97;;;12.40;99.90;;;;;;5084880;28;20056;-88
2024/02/09 12:09:03;;;;;;;10.90;3.42;;;12.40;99.90;;;;;;5070393;28;20021;-89
2024/02/09 12:11:30;;;;;;;12.85;4.22;;;12.50;99.90;;;;;;5069791;28;20009;-88
2024/02/09 12:13:56;;;;;;;10.30;3.60;;;12.40;99.90;;;;;;5072372;28;20094;-89
2024/02/09 12:16:21;;;;;;;10.73;3.58;;;12.80;99.90;;;;;;5072321;28;20047;-89
2024/02/09 12:18:52;;;;;;;11.93;4.10;;;12.40;99.90;;;;;;5067402;28;20028;-89
2024/02/09 12:21:18;;;;;;;10.07;3.63;;;12.40;99.90;;;;;;5053915;28;20029;-87
2024/02/09 12:23:51;;;;;;;11.32;3.83;;;12.30;99.90;;;;;;5068820;28;20017;-88
2024/02/09 12:26:18;;;;;;;13.40;3.65;;;12.30;99.90;;;;;;5066363;28;20028;-88
2024/02/09 12:28:45;;;;;;;8.68;3.08;;;13.50;99.90;;;;;;5071350;28;20021;-88
2024/02/09 12:31:21;;;;;;;14.43;3.80;;;12.40;99.90;;;;;;5069587;28;20016;-89
2024/02/09 12:33:48;;;;;;;16.38;3.90;;;13.20;99.90;;;;;;5068676;28;20033;-88
2024/02/09 12:36:20;;;;;;;12.60;3.90;;;12.80;99.90;;;;;;5068390;28;20056;-88
2024/02/09 12:38:56;;;;;;;13.23;3.33;;;12.30;99.90;;;;;;5081563;28;20017;-89
2024/02/09 12:41:22;;;;;;;9.07;3.50;;;12.10;99.90;;;;;;5060582;28;20037;-89
2024/02/09 12:44:01;;;;;;;13.45;4.35;;;12.20;99.90;;;;;;5063548;28;20025;-89
2024/02/09 12:46:27;;;;;;;15.25;4.47;;;12.10;99.90;;;;;;5058911;28;20017;-87
2024/02/09 12:48:56;;;;;;;13.05;3.83;;;12.00;99.90;;;;;;5067426;28;20036;-90
2024/02/09 12:51:23;;;;;;;13.35;5.03;;;12.00;99.90;;;;;;5067000;28;20021;-90
2024/02/09 12:56:24;;;;;;;17.95;5.28;;;12.00;99.90;;;;;;5808553;22;20028;-88
2024/02/09 12:58:52;;;;;;;15.15;4.65;;;12.00;99.90;;;;;;5048980;28;20116;-89
2024/02/09 13:01:18;;;;;;;11.10;3.72;;;12.00;99.90;;;;;;5034807;28;20037;-88
2024/02/09 13:03:44;;;;;;;11.73;3.80;;;13.20;99.90;;;;;;5038242;28;20132;-89
2024/02/09 13:06:13;;;;;;;13.52;4.07;;;12.30;99.90;;;;;;5057853;28;20029;-88
2024/02/09 13:08:40;;;;;;;12.23;4.70;;;12.10;99.90;;;;;;5060878;28;20029;-89
2024/02/09 13:11:06;;;;;;;14.20;4.25;;;12.20;99.90;;;;;;5060665;28;20033;-89
2024/02/09 13:13:34;;;;;;;11.88;4.50;;;13.30;99.90;;;;;;5055071;28;20124;-88
2024/02/09 13:16:00;;;;;;;13.15;4.20;;;12.20;99.90;;;;;;5060669;28;20024;-90
2024/02/09 13:18:26;;;;;;;14.10;3.85;;;12.30;99.90;;;;;;5055628;28;20033;-88
2024/02/09 13:20:52;;;;;;;11.50;3.38;;;12.90;99.90;;;;;;5066471;28;20020;-88
2024/02/09 13:23:23;;;;;;;14.77;4.43;;;12.40;99.90;;;;;;5057238;28;20051;-88
2024/02/09 13:25:50;;;;;;;15.10;3.88;;;12.20;99.90;;;;;;5061385;28;20051;-91
2024/02/09 13:28:16;;;;;;;13.40;3.78;;;12.20;99.90;;;;;;5055135;28;20021;-91
2024/02/09 13:30:42;;;;;;;17.50;4.50;;;13.20;99.90;;;;;;5061324;28;20033;-88
2024/02/09 13:33:08;;;;;;;13.98;4.30;;;12.20;99.90;;;;;;5065373;28;20063;-88
2024/02/09 13:35:33;;;;;;;13.27;3.65;;;12.30;99.90;;;;;;5057856;28;20063;-89
2024/02/09 13:37:59;;;;;;;10.02;4.05;;;12.60;99.90;;;;;;5058109;28;20028;-87
2024/02/09 13:40:25;;;;;;;13.02;4.28;;;12.60;99.90;;;;;;5059984;28;20124;-88
2024/02/09 13:42:51;;;;;;;19.65;4.88;;;13.70;99.90;;;;;;5063278;28;20029;-88
2024/02/09 13:45:23;;;;;;;38.40;18.73;;;11.10;99.90;;;;;;5061696;28;20056;-89
2024/02/09 13:47:51;;;;;;;15.73;7.20;;;12.10;99.90;;;;;;5060764;28;20052;-89
2024/02/09 13:50:19;;;;;;;10.45;3.25;;;12.20;99.90;;;;;;5042696;28;20014;-88
2024/02/09 13:52:54;;;;;;;12.75;3.78;;;11.70;99.90;;;;;;5057606;28;20036;-86
2024/02/09 13:55:22;;;;;;;10.27;3.80;;;13.40;99.90;;;;;;5060955;28;20025;-89
2024/02/09 13:57:51;;;;;;;19.13;10.68;;;13.50;99.90;;;;;;5074622;28;20045;-88
2024/02/09 14:00:18;;;;;;;13.77;5.00;;;12.40;99.90;;;;;;5063188;28;20032;-89
2024/02/09 14:02:44;;;;;;;11.60;4.00;;;12.20;99.90;;;;;;5078527;28;20033;-89
2024/02/09 14:05:10;;;;;;;9.93;3.58;;;12.20;99.90;;;;;;5083665;28;20042;-90
2024/02/09 14:07:40;;;;;;;11.73;4.22;;;11.30;99.90;;;;;;5073875;28;20016;-89
2024/02/09 14:10:11;;;;;;;10.77;3.20;;;12.50;99.90;;;;;;5063950;28;20037;-88
2024/02/09 14:12:36;;;;;;;12.35;3.70;;;12.20;99.90;;;;;;5065543;28;20104;-87
2024/02/09 14:15:03;;;;;;;17.60;5.97;;;13.00;99.90;;;;;;5063676;28;20037;-89
2024/02/09 14:17:32;;;;;;;19.02;7.35;;;12.30;99.90;;;;;;5065985;28;20052;-89
2024/02/09 14:20:00;;;;;;;11.20;4.72;;;12.60;99.90;;;;;;5085859;28;20056;-88
2024/02/09 14:22:26;;;;;;;12.57;4.80;;;13.40;99.90;;;;;;5084398;28;20028;-88
2024/02/09 14:24:52;;;;;;;12.13;5.72;;;13.00;99.90;;;;;;5069665;28;20032;-91
2024/02/09 14:27:17;;;;;;;40.28;21.30;;;12.20;99.90;;;;;;5085012;28;20044;-89
2024/02/09 14:29:46;;;;;;;17.67;7.90;;;12.90;99.90;;;;;;5066217;28;20019;-88
2024/02/09 14:32:12;;;;;;;14.10;6.25;;;12.30;99.90;;;;;;5067565;28;20108;-89
2024/02/09 14:34:41;;;;;;;9.55;3.72;;;12.30;99.90;;;;;;5070908;28;20017;-88
2024/02/09 14:37:08;;;;;;;15.02;4.90;;;12.50;99.90;;;;;;5066952;28;20049;-89
2024/02/09 14:39:33;;;;;;;9.23;3.60;;;12.30;99.90;;;;;;5081733;28;20036;-88
2024/02/09 14:41:59;;;;;;;12.90;3.72;;;12.30;99.90;;;;;;5086360;28;20833;-89
2024/02/09 14:44:25;;;;;;;12.43;3.50;;;13.20;99.90;;;;;;5067923;28;20045;-90
2024/02/09 14:46:50;;;;;;;9.38;3.15;;;13.00;99.90;;;;;;5067182;28;20039;-90
2024/02/09 14:49:17;;;;;;;9.48;3.55;;;12.50;99.90;;;;;;5068039;28;20073;-88
2024/02/09 14:51:44;;;;;;;12.27;3.28;;;12.50;99.90;;;;;;5063640;28;20011;-89
2024/02/09 14:54:13;;;;;;;13.00;4.07;;;12.40;99.90;;;;;;5075154;28;20033;-90
2024/02/09 14:56:40;;;;;;;9.63;4.03;;;12.30;99.90;;;;;;5064896;28;20112;-89
2024/02/09 14:59:07;;;;;;;7.78;3.22;;;12.40;99.90;;;;;;5083511;28;20017;-90
2024/02/09 15:01:37;;;;;;;14.95;5.07;;;12.40;99.90;;;;;;5065802;28;20029;-89
2024/02/09 15:04:10;;;;;;;11.25;2.95;;;12.30;99.90;;;;;;5089860;28;20009;-90
2024/02/09 15:06:44;;;;;;;10.60;3.17;;;12.40;99.90;;;;;;5060315;28;20027;-88
2024/02/09 15:09:16;;;;;;;10.73;3.25;;;12.20;99.90;;;;;;5068557;28;20024;-88
2024/02/09 15:11:42;;;;;;;12.05;3.10;;;12.30;99.90;;;;;;5068845;28;20017;-91
2024/02/09 15:14:09;;;;;;;10.30;3.05;;;12.40;99.90;;;;;;5080529;28;20016;-89
2024/02/09 15:16:36;;;;;;;10.18;2.90;;;12.30;99.90;;;;;;5069740;28;20020;-89
2024/02/09 15:19:01;;;;;;;10.68;3.13;;;12.40;99.90;;;;;;5067331;28;20064;-89
2024/02/09 15:21:27;;;;;;;11.25;3.20;;;13.70;99.90;;;;;;5066518;28;20258;-88
2024/02/09 15:23:54;;;;;;;9.15;3.10;;;12.40;99.90;;;;;;5069977;28;20041;-88
2024/02/09 15:26:20;;;;;;;15.23;3.70;;;12.40;99.90;;;;;;5067960;28;20017;-88
2024/02/09 15:28:46;;;;;;;10.27;3.42;;;12.40;99.90;;;;;;5071201;28;20050;-87
2024/02/09 15:31:11;;;;;;;12.68;3.75;;;13.10;99.90;;;;;;5072001;28;20072;-88
2024/02/09 15:33:38;;;;;;;8.77;2.90;;;12.40;99.90;;;;;;5083615;28;20016;-88
2024/02/09 15:36:09;;;;;;;9.13;3.25;;;13.50;99.90;;;;;;5081426;28;20067;-88
2024/02/09 15:38:36;;;;;;;9.55;2.85;;;12.40;99.90;;;;;;5073145;28;20036;-91
2024/02/09 15:41:07;;;;;;;8.07;3.05;;;12.40;99.90;;;;;;5088954;28;20028;-91
2024/02/09 15:43:36;;;;;;;7.82;3.45;;;12.80;99.90;;;;;;5071757;28;20008;-88
2024/02/09 15:46:01;;;;;;;8.18;2.67;;;12.40;99.90;;;;;;5088069;28;20021;-87
2024/02/09 15:48:27;;;;;;;7.93;2.92;;;11.60;99.90;;;;;;5070383;28;20034;-89
2024/02/09 15:50:53;;;;;;;8.18;2.92;;;12.40;99.90;;;;;;5071432;28;20021;-90
2024/02/09 15:53:19;;;;;;;8.52;3.08;;;12.40;99.90;;;;;;5062473;28;20048;-89
2024/02/09 15:55:48;;;;;;;13.15;2.85;;;12.30;99.90;;;;;;5067368;28;20028;-90
2024/02/09 15:58:15;;;;;;;11.43;3.55;;;12.90;99.90;;;;;;5066925;28;20045;-90
2024/02/09 16:00:41;;;;;;;7.35;3.10;;;12.30;99.90;;;;;;5070008;28;20039;-88
2024/02/09 16:03:09;;;;;;;8.85;3.00;;;12.40;99.90;;;;;;5084197;28;20025;-89
2024/02/09 16:05:38;;;;;;;8.48;2.80;;;12.40;99.90;;;;;;5083817;28;20020;-89
2024/02/09 16:08:05;;;;;;;10.00;3.17;;;12.60;99.90;;;;;;5085223;28;20050;-90
2024/02/09 16:10:34;;;;;;;11.82;3.15;;;12.30;99.90;;;;;;5081869;28;20009;-90
2024/02/09 16:13:01;;;;;;;7.10;3.03;;;12.30;99.90;;;;;;5072352;28;20116;-88
2024/02/09 16:15:27;;;;;;;7.68;2.90;;;12.70;99.90;;;;;;5069941;28;20068;-86
2024/02/09 16:17:53;;;;;;;8.20;2.80;;;12.20;99.90;;;;;;5069691;28;20032;-92
2024/02/09 16:20:20;;;;;;;10.35;3.90;;;11.40;99.90;;;;;;5087219;28;20046;-90
2024/02/09 16:22:50;;;;;;;8.80;3.40;;;12.30;99.90;;;;;;5084179;28;20033;-87
2024/02/09 16:25:17;;;;;;;8.63;3.00;;;13.30;99.90;;;;;;5072937;28;20034;-88
2024/02/09 16:27:55;;;;;;;;;;;;;;;;;;;;;
2024/02/09 16:30:57;;;;;;;8.30;2.85;;;12.20;99.90;;;;;;5084009;28;20035;-89
2024/02/09 16:33:41;;;;;;;;;;;;;;;;;;;;;
2024/02/09 16:36:21;;;;;;;7.22;2.58;;;12.10;99.90;;;;;;5084111;28;20104;-89
2024/02/09 16:38:50;;;;;;;9.85;2.88;;;12.00;99.90;;;;;;5080625;28;20024;-88
2024/02/09 16:41:19;;;;;;;6.60;2.17;;;12.00;99.90;;;;;;5071332;28;20024;-90
2024/02/09 16:43:46;;;;;;;5.70;2.60;;;11.90;99.90;;;;;;5089327;28;20020;-89
2024/02/09 16:46:11;;;;;;;5.18;2.22;;;11.90;99.90;;;;;;5069113;28;20017;-88
2024/02/09 16:48:37;;;;;;;5.78;1.92;;;11.90;99.90;;;;;;5067661;28;20030;-90
2024/02/09 16:51:09;;;;;;;4.43;2.05;;;12.00;99.90;;;;;;5066824;28;20032;-91
2024/02/09 16:53:38;;;;;;;6.05;2.17;;;13.10;99.90;;;;;;5060267;28;20111;-89
2024/02/09 16:56:22;;;;;;;4.90;1.85;;;10.90;99.90;;;;;;5058415;28;20028;-91
2024/02/09 16:59:29;;;;;;;5.10;2.33;;;11.90;99.90;;;;;;5078301;28;20033;-89
2024/02/09 17:02:05;;;;;;;;;;;;;;;;;;;;;
2024/02/09 17:05:17;;;;;;;;;;;;;;;;;;;;;
2024/02/09 17:07:48;;;;;;;5.10;2.00;;;11.70;99.90;;;;;;5075996;28;20047;-88
2024/02/09 17:14:10;;;;;;;4.93;2.15;;;11.80;99.90;;;;;;5074190;28;20027;-89
2024/02/09 17:17:17;;;;;;;11.20;5.05;;;11.70;99.90;;;;;;5057714;28;20080;-91
2024/02/09 17:19:54;;;;;;;;;;;;;;;;;;;;;
2024/02/09 17:22:21;;;;;;;16.63;8.93;;;11.30;99.90;;;;;;5081783;28;20044;-89
2024/02/09 17:24:47;;;;;;;7.65;2.72;;;11.40;99.90;;;;;;5080035;28;20008;-88
2024/02/09 17:27:19;;;;;;;7.60;4.32;;;11.30;99.90;;;;;;5067651;28;20140;-88
2024/02/09 17:29:45;;;;;;;17.50;7.75;;;11.40;99.90;;;;;;5070621;28;20019;-90
2024/02/09 17:32:10;;;;;;;6.60;2.40;;;11.90;99.90;;;;;;5072816;28;20013;-89
2024/02/09 17:34:52;;;;;;;9.45;4.90;;;11.30;99.90;;;;;;5068990;28;20009;-89
2024/02/09 17:37:18;;;;;;;9.43;4.65;;;12.40;99.90;;;;;;5063974;28;20037;-88
2024/02/09 17:39:44;;;;;;;20.20;9.98;;;11.40;99.90;;;;;;5061355;28;20043;-89
2024/02/09 17:42:10;;;;;;;18.42;8.57;;;11.30;99.90;;;;;;5078320;28;20037;-90
2024/02/09 17:44:38;;;;;;;13.18;6.38;;;12.60;99.90;;;;;;5062715;28;20033;-90
2024/02/09 17:47:13;;;;;;;5.28;2.47;;;11.60;99.90;;;;;;5062942;28;20016;-89
2024/02/09 17:49:39;;;;;;;5.85;3.25;;;11.20;99.90;;;;;;5072205;28;20029;-88
2024/02/09 17:52:05;;;;;;;6.90;2.58;;;11.30;99.90;;;;;;5067962;28;20017;-90
2024/02/09 17:54:31;;;;;;;6.35;3.80;;;11.10;99.90;;;;;;5046577;28;20047;-89
2024/02/09 17:56:57;;;;;;;4.93;2.58;;;11.20;99.90;;;;;;5080283;28;20044;-89
2024/02/09 17:59:25;;;;;;;5.78;2.55;;;11.20;99.90;;;;;;5071755;28;20058;-90
2024/02/09 18:01:51;;;;;;;6.28;2.33;;;11.10;99.90;;;;;;5069812;28;20028;-88
2024/02/09 18:04:17;;;;;;;4.55;2.65;;;11.10;99.90;;;;;;5085508;28;20000;-87
2024/02/09 18:06:43;;;;;;;4.90;2.28;;;11.20;99.90;;;;;;5084692;28;20064;-89
2024/02/09 18:09:15;;;;;;;4.88;3.15;;;11.10;99.90;;;;;;5084318;28;20018;-90
2024/02/09 18:11:43;;;;;;;7.00;2.78;;;11.30;99.90;;;;;;5072702;28;20012;-88
2024/02/09 18:14:09;;;;;;;5.63;2.17;;;11.00;99.90;;;;;;5066434;28;20025;-88
2024/02/09 18:16:34;;;;;;;4.53;2.30;;;10.50;99.90;;;;;;5058553;28;20039;-87
2024/02/09 18:19:00;;;;;;;4.40;2.25;;;12.20;99.90;;;;;;5078218;28;20009;-89
2024/02/09 18:21:28;;;;;;;5.57;2.53;;;11.00;99.90;;;;;;5082293;28;20044;-88
2024/02/09 18:23:54;;;;;;;7.35;2.72;;;11.10;99.90;;;;;;5070656;28;20024;-90
2024/02/09 18:26:24;;;;;;;8.32;3.05;;;10.50;99.90;;;;;;5064788;28;20193;-88
2024/02/09 18:28:50;;;;;;;5.90;2.10;;;10.40;99.90;;;;;;5079940;28;20009;-88
2024/02/09 18:31:17;;;;;;;6.20;2.97;;;11.00;99.90;;;;;;5064461;28;20035;-87
2024/02/09 18:33:46;;;;;;;10.05;2.63;;;11.00;99.90;;;;;;5063030;28;20020;-88
2024/02/09 18:36:14;;;;;;;6.72;2.50;;;11.20;99.90;;;;;;5087794;28;20036;-89
2024/02/09 18:38:40;;;;;;;6.28;2.67;;;11.00;99.90;;;;;;5072732;28;20036;-89
2024/02/09 18:41:06;;;;;;;7.50;3.00;;;11.00;99.90;;;;;;5070021;28;20112;-87
2024/02/09 18:43:32;;;;;;;5.03;2.40;;;10.70;99.90;;;;;;5092076;28;20119;-87
2024/02/09 18:45:59;;;;;;;8.13;2.97;;;11.00;99.90;;;;;;5069541;28;20122;-88
2024/02/09 18:48:26;;;;;;;7.22;2.60;;;10.90;99.90;;;;;;5074936;28;20074;-88
2024/02/09 18:50:53;;;;;;;3.67;2.10;;;11.40;99.90;;;;;;5071923;28;20027;-89
2024/02/09 18:53:19;;;;;;;4.82;2.22;;;10.90;99.90;;;;;;5086658;28;20037;-89
